Time;durP1;ratioP1;P1;durP2;ratioP2;P2;SDS_P1;SDS_P2;PMS_P1;PMS_P2;Temp;Humidity;BMP_temperature;BMP_pressure;BME280_temperature;BME280_humidity;BME280_pressure;Samples;Min_cycle;Max_cycle;Signal;HPM_P1;HPM_P2
2022/03/19 00:01:01;;;;;;;10.57;2.05;;;7.10;96.00;;;;;;5133633;28;20134;-77
2022/03/19 00:03:28;;;;;;;13.43;2.17;;;7.00;96.00;;;;;;5117339;27;20047;-78
2022/03/19 00:05:54;;;;;;;10.60;2.20;;;6.90;96.10;;;;;;5119899;27;20061;-77
2022/03/19 00:08:20;;;;;;;12.90;2.15;;;6.90;96.00;;;;;;5136712;27;20035;-77
2022/03/19 00:10:46;;;;;;;18.05;2.92;;;6.80;96.10;;;;;;5138500;27;20046;-76
2022/03/19 00:13:12;;;;;;;17.02;2.28;;;6.90;96.30;;;;;;5123723;27;20050;-77
2022/03/19 00:15:40;;;;;;;8.77;2.13;;;6.80;96.10;;;;;;5123814;27;20047;-77
2022/03/19 00:18:06;;;;;;;9.57;2.42;;;6.90;96.10;;;;;;5140655;27;20065;-77
2022/03/19 00:20:33;;;;;;;15.77;2.35;;;6.90;96.10;;;;;;5124031;27;20119;-76
2022/03/19 00:22:59;;;;;;;8.35;3.15;;;6.90;96.20;;;;;;5123699;27;20042;-76
2022/03/19 00:25:24;;;;;;;11.05;2.03;;;7.00;96.40;;;;;;5140162;27;20099;-76
2022/03/19 00:27:50;;;;;;;10.20;1.88;;;7.10;96.00;;;;;;5140824;27;20047;-77
2022/03/19 00:30:16;;;;;;;13.80;2.38;;;7.00;95.90;;;;;;5123789;27;20049;-76
2022/03/19 00:32:41;;;;;;;10.98;1.75;;;7.00;96.00;;;;;;5140560;27;20051;-76
2022/03/19 00:35:08;;;;;;;14.43;2.28;;;6.90;96.00;;;;;;5140701;27;20046;-77
2022/03/19 00:37:44;;;;;;;8.85;2.20;;;6.80;96.10;;;;;;5140384;27;20054;-77
2022/03/19 00:40:11;;;;;;;8.50;1.90;;;6.80;96.10;;;;;;5140552;27;20367;-77
2022/03/19 00:42:37;;;;;;;14.05;2.03;;;6.80;96.10;;;;;;5140244;27;20526;-76
2022/03/19 00:45:03;;;;;;;10.65;2.08;;;6.70;96.20;;;;;;5140196;27;20039;-76
2022/03/19 00:47:29;;;;;;;10.82;2.00;;;6.70;96.20;;;;;;5158943;27;20109;-76
2022/03/19 00:49:54;;;;;;;10.48;2.15;;;6.70;96.10;;;;;;5140163;27;20521;-76
2022/03/19 00:52:20;;;;;;;9.20;2.03;;;6.60;96.20;;;;;;5123191;27;20089;-76
2022/03/19 00:54:46;;;;;;;12.05;2.30;;;6.50;96.30;;;;;;5139712;27;20473;-76
2022/03/19 00:57:11;;;;;;;9.82;1.70;;;6.50;96.40;;;;;;5122876;27;20042;-76
2022/03/19 00:59:37;;;;;;;11.60;2.25;;;6.60;96.40;;;;;;5123090;27;20041;-76
2022/03/19 01:02:03;;;;;;;15.35;2.25;;;6.50;96.20;;;;;;5123025;27;20039;-77
2022/03/19 01:04:29;;;;;;;11.85;2.10;;;6.50;96.50;;;;;;5139722;27;20102;-77
2022/03/19 01:06:54;;;;;;;11.32;2.22;;;6.50;96.60;;;;;;5139970;27;20504;-76
2022/03/19 01:09:20;;;;;;;11.00;2.60;;;6.60;96.70;;;;;;5140181;27;20058;-77
2022/03/19 01:11:46;;;;;;;12.60;2.08;;;6.50;96.60;;;;;;5139984;27;20050;-76
2022/03/19 01:14:11;;;;;;;15.00;2.42;;;6.50;96.60;;;;;;5139814;27;20431;-76
2022/03/19 01:16:37;;;;;;;17.20;2.20;;;6.60;96.70;;;;;;5139635;27;20126;-77
2022/03/19 01:19:03;;;;;;;12.27;1.88;;;6.60;96.80;;;;;;5139875;27;20103;-76
2022/03/19 01:21:29;;;;;;;10.32;1.95;;;6.60;96.60;;;;;;5139293;27;20154;-76
2022/03/19 01:23:54;;;;;;;9.80;1.83;;;6.60;96.70;;;;;;5139307;27;20047;-76
2022/03/19 01:26:20;;;;;;;11.50;1.80;;;6.60;96.70;;;;;;5122594;27;20045;-77
2022/03/19 01:28:46;;;;;;;13.85;2.55;;;6.70;96.90;;;;;;5139608;27;20130;-77
2022/03/19 01:31:11;;;;;;;15.38;2.70;;;6.70;96.90;;;;;;5139580;27;20092;-76
2022/03/19 01:33:38;;;;;;;16.10;2.70;;;6.70;96.80;;;;;;5140009;27;20053;-76
2022/03/19 01:36:04;;;;;;;14.70;2.40;;;6.80;97.00;;;;;;5139550;27;20405;-76
2022/03/19 01:38:30;;;;;;;16.25;2.97;;;6.80;97.00;;;;;;5139449;27;20038;-76
2022/03/19 01:40:56;;;;;;;13.68;2.10;;;6.80;96.90;;;;;;5139149;27;20046;-76
2022/03/19 01:43:21;;;;;;;17.05;2.40;;;6.80;97.00;;;;;;5139348;27;20051;-76
2022/03/19 01:45:48;;;;;;;18.58;2.85;;;7.00;97.00;;;;;;5139034;27;20042;-76
2022/03/19 01:48:13;;;;;;;12.32;2.03;;;7.00;97.00;;;;;;5139178;27;20482;-76
2022/03/19 01:50:39;;;;;;;11.60;2.40;;;7.10;97.10;;;;;;5139378;27;20130;-77
2022/03/19 01:53:05;;;;;;;14.55;2.97;;;7.20;96.90;;;;;;5139436;27;20137;-77
2022/03/19 01:55:32;;;;;;;8.15;1.98;;;7.10;96.90;;;;;;5138634;27;20070;-77
2022/03/19 01:58:00;;;;;;;19.73;3.00;;;7.10;96.90;;;;;;5138718;27;20397;-76
2022/03/19 02:00:25;;;;;;;16.10;2.92;;;7.20;97.10;;;;;;5138753;27;20491;-78
2022/03/19 02:02:53;;;;;;;21.80;2.85;;;7.30;97.00;;;;;;5138972;27;20051;-76
2022/03/19 02:05:21;;;;;;;20.27;2.85;;;7.40;96.90;;;;;;5138588;27;20473;-76
2022/03/19 02:07:48;;;;;;;16.05;2.72;;;7.40;96.90;;;;;;5121681;27;20047;-76
2022/03/19 02:10:17;;;;;;;20.23;3.00;;;7.50;96.80;;;;;;5138791;27;20066;-76
2022/03/19 02:12:44;;;;;;;20.30;2.80;;;7.50;96.90;;;;;;5138860;27;20043;-76
2022/03/19 02:15:11;;;;;;;16.58;2.40;;;7.40;96.80;;;;;;5138485;27;20089;-77
2022/03/19 02:17:37;;;;;;;17.33;2.40;;;7.40;96.90;;;;;;5138483;27;20046;-77
2022/03/19 02:20:05;;;;;;;14.25;3.03;;;7.40;96.90;;;;;;5138650;27;20050;-77
2022/03/19 02:22:31;;;;;;;16.90;3.22;;;7.40;97.00;;;;;;5138591;27;20107;-76
2022/03/19 02:27:43;;;;;;;10.48;2.22;;;7.40;96.80;;;;;;5138507;27;20092;-77
2022/03/19 02:30:11;;;;;;;14.95;2.42;;;7.30;97.00;;;;;;5138171;27;20047;-77
2022/03/19 02:32:43;;;;;;;11.05;2.55;;;7.20;96.90;;;;;;5138088;27;20055;-77
2022/03/19 02:35:10;;;;;;;11.90;2.33;;;7.00;97.10;;;;;;5137781;27;20143;-77
2022/03/19 02:37:41;;;;;;;22.55;3.10;;;7.00;97.30;;;;;;5106946;27;20078;-77
2022/03/19 02:40:12;;;;;;;15.40;2.42;;;7.00;97.30;;;;;;5115964;27;20043;-77
2022/03/19 02:42:38;;;;;;;12.05;2.70;;;7.10;97.40;;;;;;5116592;27;20065;-77
2022/03/19 02:45:05;;;;;;;11.13;3.03;;;6.90;97.20;;;;;;5117301;27;20054;-77
2022/03/19 02:47:32;;;;;;;14.25;2.80;;;7.00;97.20;;;;;;5117508;27;20055;-77
2022/03/19 02:49:58;;;;;;;10.93;2.90;;;7.10;97.30;;;;;;5117457;27;20054;-77
2022/03/19 02:52:23;;;;;;;16.88;2.95;;;7.20;97.30;;;;;;5100408;27;20050;-77
2022/03/19 02:54:49;;;;;;;18.27;3.28;;;7.20;97.20;;;;;;5116974;27;20072;-77
2022/03/19 02:57:15;;;;;;;21.70;3.53;;;7.20;97.20;;;;;;5117644;27;20047;-77
2022/03/19 02:59:41;;;;;;;23.40;3.40;;;7.20;97.30;;;;;;5117116;27;20500;-77
2022/03/19 03:02:10;;;;;;;22.95;3.72;;;7.20;97.40;;;;;;5117228;27;20166;-77
2022/03/19 03:04:35;;;;;;;19.08;3.38;;;7.30;97.30;;;;;;5116343;27;20490;-77
2022/03/19 03:07:03;;;;;;;16.60;4.57;;;7.30;97.40;;;;;;5117144;27;20130;-77
2022/03/19 03:09:31;;;;;;;17.15;3.50;;;7.40;97.20;;;;;;5117123;27;20055;-76
2022/03/19 03:12:02;;;;;;;13.63;3.00;;;7.30;97.20;;;;;;5117233;27;20047;-77
2022/03/19 03:14:28;;;;;;;23.80;4.18;;;7.30;97.20;;;;;;5117049;27;20549;-77
2022/03/19 03:16:57;;;;;;;18.67;4.43;;;7.30;97.20;;;;;;5116860;27;20070;-76
2022/03/19 03:19:23;;;;;;;20.40;4.55;;;7.30;97.20;;;;;;5116958;27;20043;-77
2022/03/19 03:21:49;;;;;;;21.17;4.20;;;7.30;97.20;;;;;;5116917;27;20379;-77
2022/03/19 03:24:14;;;;;;;20.33;4.10;;;7.30;97.40;;;;;;5116168;27;20047;-77
2022/03/19 03:26:41;;;;;;;15.95;3.75;;;7.40;97.20;;;;;;5116296;27;20049;-77
2022/03/19 03:29:07;;;;;;;18.02;3.78;;;7.40;97.20;;;;;;5116845;27;20173;-77
2022/03/19 03:31:33;;;;;;;15.57;3.55;;;7.40;97.10;;;;;;5116776;27;20035;-77
2022/03/19 03:34:00;;;;;;;15.75;3.90;;;7.40;97.10;;;;;;5116811;27;20047;-77
2022/03/19 03:36:26;;;;;;;16.05;4.35;;;7.40;97.20;;;;;;5116959;27;20081;-78
2022/03/19 03:38:51;;;;;;;19.05;3.72;;;7.40;97.20;;;;;;5116785;27;20498;-77
2022/03/19 03:41:17;;;;;;;19.35;4.20;;;7.40;97.10;;;;;;5116365;28;20042;-77
2022/03/19 03:43:43;;;;;;;16.33;4.18;;;7.30;97.00;;;;;;5116674;27;20082;-77
2022/03/19 03:46:09;;;;;;;13.85;3.72;;;7.20;97.10;;;;;;5116204;28;20390;-77
2022/03/19 03:48:36;;;;;;;13.75;3.95;;;7.20;97.20;;;;;;5116621;28;20470;-77
2022/03/19 03:51:03;;;;;;;19.42;3.92;;;7.20;97.20;;;;;;5116296;28;20083;-77
2022/03/19 03:53:29;;;;;;;15.35;4.50;;;7.30;97.20;;;;;;5116307;28;20051;-77
2022/03/19 03:55:56;;;;;;;20.73;4.20;;;7.40;97.10;;;;;;5116033;28;20043;-76
2022/03/19 03:58:23;;;;;;;16.10;3.80;;;7.30;97.10;;;;;;5116516;28;20093;-77
2022/03/19 04:00:50;;;;;;;13.30;4.57;;;7.20;97.10;;;;;;5116447;28;20047;-77
2022/03/19 04:03:16;;;;;;;15.52;4.05;;;7.20;97.30;;;;;;5116440;28;20047;-77
2022/03/19 04:05:42;;;;;;;19.23;4.18;;;7.30;97.20;;;;;;5116132;28;20371;-77
2022/03/19 04:08:07;;;;;;;14.50;3.55;;;7.20;97.00;;;;;;5116358;28;20496;-77
2022/03/19 04:10:33;;;;;;;14.88;3.50;;;7.20;96.80;;;;;;5116406;28;20405;-77
2022/03/19 04:12:59;;;;;;;14.20;4.45;;;7.00;96.80;;;;;;5116139;28;20461;-76
2022/03/19 04:15:25;;;;;;;20.92;4.80;;;7.00;97.00;;;;;;5116339;28;20047;-77
2022/03/19 04:17:51;;;;;;;14.43;3.75;;;6.90;97.10;;;;;;5116070;28;20046;-77
2022/03/19 04:20:16;;;;;;;14.75;3.72;;;6.80;97.00;;;;;;5116313;28;20050;-76
2022/03/19 04:22:47;;;;;;;20.40;4.88;;;6.70;97.00;;;;;;5116300;28;20047;-76
2022/03/19 04:25:17;;;;;;;22.45;5.05;;;6.80;97.10;;;;;;5115875;28;20112;-77
2022/03/19 04:27:45;;;;;;;13.82;4.35;;;6.80;97.40;;;;;;5116704;28;20528;-76
2022/03/19 04:30:13;;;;;;;24.40;5.47;;;6.80;97.30;;;;;;5116667;28;20428;-77
2022/03/19 04:32:50;;;;;;;22.40;5.13;;;6.80;97.30;;;;;;5099048;28;20079;-77
2022/03/19 04:38:06;;;;;;;16.05;4.55;;;6.70;97.50;;;;;;5116085;28;20053;-76
2022/03/19 04:40:32;;;;;;;15.50;4.85;;;6.70;97.40;;;;;;5115893;28;20050;-77
2022/03/19 04:42:58;;;;;;;15.32;5.03;;;6.70;97.40;;;;;;5116035;28;20486;-76
2022/03/19 04:45:24;;;;;;;24.52;5.45;;;6.70;97.40;;;;;;5098970;28;20108;-76
2022/03/19 04:47:51;;;;;;;21.63;4.43;;;6.60;97.30;;;;;;5116042;28;20047;-76
2022/03/19 04:50:17;;;;;;;22.20;5.78;;;6.60;97.60;;;;;;5116014;28;20043;-76
2022/03/19 04:52:43;;;;;;;23.95;5.57;;;6.60;97.60;;;;;;5116003;28;20090;-76
2022/03/19 04:55:10;;;;;;;19.50;5.57;;;6.50;97.50;;;;;;5081849;28;20083;-76
2022/03/19 04:57:37;;;;;;;17.27;5.20;;;6.40;97.70;;;;;;5118545;27;20474;-76
2022/03/19 05:00:04;;;;;;;22.73;5.32;;;6.40;97.80;;;;;;5119654;27;20053;-76
2022/03/19 05:02:31;;;;;;;21.02;5.63;;;6.40;97.90;;;;;;5119628;27;20054;-76
2022/03/19 05:04:56;;;;;;;22.58;6.03;;;6.50;97.90;;;;;;5119084;27;20494;-76
2022/03/19 05:07:23;;;;;;;19.17;6.72;;;6.60;97.80;;;;;;5119596;27;20095;-76
2022/03/19 05:12:36;;;;;;;20.05;6.20;;;6.70;97.70;;;;;;5119521;27;20397;-76
2022/03/19 05:15:06;;;;;;;22.05;6.20;;;6.50;97.60;;;;;;5119022;27;20047;-76
2022/03/19 05:17:32;;;;;;;24.95;7.70;;;6.50;97.70;;;;;;5119038;27;20090;-76
2022/03/19 05:19:57;;;;;;;18.90;6.20;;;6.50;97.70;;;;;;5102312;27;20047;-77
2022/03/19 05:22:23;;;;;;;18.15;6.50;;;6.40;97.70;;;;;;5102204;27;20100;-76
2022/03/19 05:24:49;;;;;;;23.20;6.53;;;6.50;97.80;;;;;;5118514;27;20105;-76
2022/03/19 05:27:15;;;;;;;16.83;6.45;;;6.40;97.70;;;;;;5118868;27;20041;-76
2022/03/19 05:29:41;;;;;;;22.45;7.03;;;6.30;97.80;;;;;;5119047;27;20479;-76
2022/03/19 05:32:08;;;;;;;20.17;6.78;;;6.30;97.80;;;;;;5119200;27;20505;-76
2022/03/19 05:34:34;;;;;;;21.42;6.97;;;6.40;97.90;;;;;;5118752;27;20058;-76
2022/03/19 05:37:03;;;;;;;22.75;7.57;;;6.40;97.80;;;;;;5101799;27;20035;-76
2022/03/19 05:39:30;;;;;;;18.83;6.88;;;6.40;97.80;;;;;;5118584;27;20534;-76
2022/03/19 05:41:56;;;;;;;24.77;7.03;;;6.40;97.90;;;;;;5118862;27;20134;-76
2022/03/19 05:44:21;;;;;;;23.73;7.53;;;6.40;97.80;;;;;;5101803;27;20134;-76
2022/03/19 05:46:47;;;;;;;22.45;7.60;;;6.40;97.70;;;;;;5101509;27;20051;-76
2022/03/19 05:49:13;;;;;;;17.52;7.03;;;6.40;97.80;;;;;;5118380;27;20055;-76
2022/03/19 05:51:39;;;;;;;20.88;8.48;;;6.40;97.80;;;;;;5118596;27;20043;-76
2022/03/19 05:54:05;;;;;;;22.85;8.18;;;6.50;97.80;;;;;;5118675;27;20043;-76
2022/03/19 05:56:31;;;;;;;25.08;8.43;;;6.40;97.70;;;;;;5118441;27;20547;-76
2022/03/19 05:58:57;;;;;;;29.33;8.02;;;6.40;97.80;;;;;;5101236;27;20043;-76
2022/03/19 06:01:26;;;;;;;21.42;8.50;;;6.40;97.90;;;;;;5118461;27;20390;-76
2022/03/19 06:03:56;;;;;;;22.55;7.70;;;6.40;97.70;;;;;;5118154;27;20505;-76
2022/03/19 06:06:24;;;;;;;20.48;7.53;;;6.30;97.80;;;;;;5101037;27;20047;-76
2022/03/19 06:08:49;;;;;;;23.77;7.90;;;6.30;97.80;;;;;;5118265;27;20051;-76
2022/03/19 06:11:15;;;;;;;27.88;8.32;;;6.30;97.80;;;;;;5118293;27;20386;-76
2022/03/19 06:13:41;;;;;;;27.33;8.38;;;6.30;97.90;;;;;;5101207;27;20043;-76
2022/03/19 06:16:07;;;;;;;28.15;8.35;;;6.20;97.90;;;;;;5118035;27;20042;-76
2022/03/19 06:18:33;;;;;;;25.42;7.97;;;6.20;97.90;;;;;;5118436;27;20043;-76
2022/03/19 06:20:59;;;;;;;27.13;8.68;;;6.30;97.90;;;;;;5117798;27;20085;-76
2022/03/19 06:23:25;;;;;;;25.60;8.90;;;6.30;97.90;;;;;;5117670;27;20067;-76
2022/03/19 06:25:52;;;;;;;23.15;8.77;;;6.40;97.80;;;;;;5117549;27;20089;-76
2022/03/19 06:28:17;;;;;;;30.88;9.93;;;6.50;97.70;;;;;;5117947;27;20074;-76
2022/03/19 06:30:43;;;;;;;27.40;9.40;;;6.50;97.70;;;;;;5117754;27;20616;-77
2022/03/19 06:33:11;;;;;;;30.38;9.25;;;6.40;97.70;;;;;;5117949;27;20051;-76
2022/03/19 06:38:24;;;;;;;24.08;8.30;;;6.70;97.70;;;;;;5118226;27;20124;-77
2022/03/19 06:40:50;;;;;;;24.35;7.78;;;6.50;97.60;;;;;;5117509;27;20058;-76
2022/03/19 06:43:16;;;;;;;24.95;8.10;;;6.70;97.70;;;;;;5117310;27;20043;-77
2022/03/19 06:45:42;;;;;;;25.88;8.68;;;6.80;97.60;;;;;;5118072;27;20074;-76
2022/03/19 06:48:08;;;;;;;23.30;8.25;;;6.90;97.50;;;;;;5117293;27;20073;-76
2022/03/19 06:50:33;;;;;;;25.38;7.95;;;7.00;97.40;;;;;;5083617;27;20112;-76
2022/03/19 06:52:59;;;;;;;21.83;8.23;;;6.90;97.30;;;;;;5117204;27;20047;-77
2022/03/19 06:55:25;;;;;;;24.73;8.60;;;7.00;97.40;;;;;;5116941;27;20047;-76
2022/03/19 06:57:50;;;;;;;23.60;7.75;;;7.10;97.30;;;;;;5117189;27;20078;-76
2022/03/19 07:00:16;;;;;;;28.45;8.18;;;7.20;97.30;;;;;;5135448;27;20051;-77
2022/03/19 07:02:49;;;;;;;20.08;7.80;;;7.20;97.20;;;;;;5100768;27;20389;-77
2022/03/19 07:05:26;;;;;;;25.33;7.07;;;7.30;97.00;;;;;;5113344;28;20058;-77
2022/03/19 07:07:53;;;;;;;22.27;6.85;;;7.30;97.00;;;;;;5096840;28;20044;-76
2022/03/19 07:10:19;;;;;;;23.83;7.63;;;7.30;96.90;;;;;;5096977;28;20047;-76
2022/03/19 07:12:51;;;;;;;23.30;7.93;;;7.40;96.90;;;;;;5113846;28;20433;-77
2022/03/19 07:15:19;;;;;;;31.27;8.23;;;7.30;97.00;;;;;;5113982;28;20044;-76
2022/03/19 07:17:45;;;;;;;23.42;7.15;;;7.30;96.90;;;;;;5113231;28;20086;-77
2022/03/19 07:20:14;;;;;;;19.25;6.75;;;7.10;96.90;;;;;;5113360;28;20035;-76
2022/03/19 07:22:55;;;;;;;21.15;7.15;;;7.20;97.10;;;;;;5113680;28;20486;-76
2022/03/19 07:25:26;;;;;;;22.38;7.25;;;7.20;97.10;;;;;;5112984;28;20091;-76
2022/03/19 07:27:54;;;;;;;20.23;7.05;;;7.20;97.10;;;;;;5113637;28;20063;-76
2022/03/19 07:30:20;;;;;;;21.20;7.15;;;7.30;97.10;;;;;;5113395;28;20569;-76
2022/03/19 07:32:47;;;;;;;23.30;6.88;;;7.50;97.00;;;;;;5114271;28;20040;-76
2022/03/19 07:35:14;;;;;;;20.23;6.40;;;7.40;96.70;;;;;;5113394;28;20043;-76
2022/03/19 07:37:41;;;;;;;14.98;6.30;;;7.40;97.00;;;;;;5113086;28;20122;-77
2022/03/19 07:40:08;;;;;;;23.48;6.72;;;7.50;96.70;;;;;;5130307;27;20051;-76
2022/03/19 07:42:35;;;;;;;19.10;6.25;;;7.70;96.80;;;;;;5132363;27;20043;-76
2022/03/19 07:45:02;;;;;;;17.17;6.10;;;7.70;96.60;;;;;;5132856;27;20035;-77
2022/03/19 07:47:29;;;;;;;21.23;6.78;;;7.80;96.80;;;;;;5116863;27;20071;-76
2022/03/19 07:49:55;;;;;;;23.02;6.95;;;7.80;96.60;;;;;;5116701;27;20055;-76
2022/03/19 07:52:21;;;;;;;26.60;7.20;;;8.00;96.60;;;;;;5133636;28;20054;-76
2022/03/19 07:54:47;;;;;;;22.33;6.00;;;8.00;96.80;;;;;;5133694;28;20358;-76
2022/03/19 07:57:13;;;;;;;20.52;5.80;;;8.10;96.60;;;;;;5133435;28;20050;-76
2022/03/19 07:59:40;;;;;;;17.92;5.82;;;8.20;96.40;;;;;;5133686;28;20048;-76
2022/03/19 08:02:06;;;;;;;18.88;5.78;;;8.20;96.50;;;;;;5116503;28;20050;-76
2022/03/19 08:04:32;;;;;;;18.88;6.32;;;8.20;96.50;;;;;;5133266;28;20055;-76
2022/03/19 08:06:58;;;;;;;22.98;6.85;;;8.20;96.20;;;;;;5133272;28;20047;-76
2022/03/19 08:09:24;;;;;;;21.45;5.90;;;8.40;96.50;;;;;;5133541;28;20050;-76
2022/03/19 08:11:51;;;;;;;24.35;5.63;;;8.50;96.30;;;;;;5133494;28;20119;-76
2022/03/19 08:14:18;;;;;;;16.85;5.47;;;8.40;96.10;;;;;;5133511;28;20115;-76
2022/03/19 08:16:46;;;;;;;18.48;5.32;;;8.50;96.00;;;;;;5133313;28;20058;-77
2022/03/19 08:19:12;;;;;;;19.58;5.35;;;8.50;96.00;;;;;;5133607;28;20431;-78
2022/03/19 08:21:39;;;;;;;18.00;5.28;;;8.60;96.10;;;;;;5134017;28;20512;-79
2022/03/19 08:24:06;;;;;;;17.60;6.07;;;8.60;95.80;;;;;;5132946;28;20051;-81
2022/03/19 08:26:32;;;;;;;18.20;5.30;;;8.70;96.00;;;;;;5116377;28;20050;-80
2022/03/19 08:28:58;;;;;;;23.88;5.07;;;8.90;95.70;;;;;;5116318;28;20131;-80
2022/03/19 08:31:24;;;;;;;16.92;4.75;;;8.90;95.60;;;;;;5133997;27;20133;-80
2022/03/19 08:33:50;;;;;;;15.18;4.78;;;9.00;95.60;;;;;;5137025;27;20055;-81
2022/03/19 08:36:16;;;;;;;17.35;5.00;;;9.00;95.50;;;;;;5137205;27;20390;-80
2022/03/19 08:41:26;;;;;;;19.85;5.60;;;9.10;95.30;;;;;;5137295;27;20058;-80
2022/03/19 08:43:52;;;;;;;18.02;5.45;;;9.20;95.30;;;;;;5136832;27;20047;-80
2022/03/19 08:46:17;;;;;;;19.85;5.30;;;9.20;95.10;;;;;;5137114;27;20051;-81
2022/03/19 08:48:43;;;;;;;15.57;4.68;;;9.40;95.30;;;;;;5143741;27;20117;-82
2022/03/19 08:53:53;;;;;;;31.27;5.15;;;9.70;95.10;;;;;;5136810;27;20140;-80
2022/03/19 08:56:20;;;;;;;18.92;4.40;;;9.80;95.10;;;;;;5136742;27;20480;-80
2022/03/19 08:58:46;;;;;;;15.02;4.07;;;9.90;95.00;;;;;;5136821;27;20478;-79
2022/03/19 09:01:12;;;;;;;17.40;4.15;;;10.10;94.90;;;;;;5136954;27;20486;-79
2022/03/19 09:03:38;;;;;;;19.85;4.57;;;10.10;94.50;;;;;;5137896;27;20035;-80
2022/03/19 09:06:04;;;;;;;15.73;3.53;;;10.20;94.30;;;;;;5140080;27;20055;-76
2022/03/19 09:08:29;;;;;;;18.58;4.00;;;9.90;93.80;;;;;;5139845;27;20046;-85
2022/03/19 09:10:58;;;;;;;18.17;3.75;;;9.80;94.40;;;;;;5142241;27;20072;-83
2022/03/19 09:13:24;;;;;;;21.30;5.03;;;10.00;94.00;;;;;;5157304;27;20090;-85
2022/03/19 09:15:50;;;;;;;14.13;3.55;;;10.10;94.00;;;;;;5139727;27;20079;-83
2022/03/19 09:18:16;;;;;;;20.73;3.92;;;10.20;94.00;;;;;;5157915;27;20482;-84
2022/03/19 09:20:42;;;;;;;16.30;3.40;;;10.40;93.80;;;;;;5139893;27;20126;-84
2022/03/19 09:23:09;;;;;;;15.95;2.78;;;10.40;93.10;;;;;;5139848;27;20058;-83
2022/03/19 09:25:36;;;;;;;15.23;2.55;;;10.40;93.00;;;;;;5122332;27;20450;-83
2022/03/19 09:28:02;;;;;;;14.93;2.75;;;10.50;92.70;;;;;;5139448;27;20097;-82
2022/03/19 09:30:27;;;;;;;12.35;2.30;;;10.70;92.60;;;;;;5122492;27;20086;-81
2022/03/19 09:32:57;;;;;;;18.48;3.28;;;10.50;92.00;;;;;;5139549;27;20043;-78
2022/03/19 09:35:23;;;;;;;9.85;2.50;;;10.30;92.00;;;;;;5139516;27;20052;-79
2022/03/19 09:37:49;;;;;;;18.20;2.40;;;10.30;91.90;;;;;;5139496;27;20461;-83
2022/03/19 09:40:15;;;;;;;11.52;2.50;;;10.20;91.80;;;;;;5139452;27;20082;-82
2022/03/19 09:42:48;;;;;;;10.85;2.90;;;10.50;92.10;;;;;;5139074;27;20074;-80
2022/03/19 09:45:16;;;;;;;10.70;2.38;;;10.70;91.80;;;;;;5139140;27;20046;-80
2022/03/19 09:47:42;;;;;;;11.43;2.20;;;10.80;92.00;;;;;;5122198;27;20493;-80
2022/03/19 09:50:08;;;;;;;13.43;2.67;;;11.00;91.40;;;;;;5122875;27;20078;-80
2022/03/19 09:52:37;;;;;;;14.35;2.67;;;11.10;91.10;;;;;;5139030;27;20431;-77
2022/03/19 09:55:04;;;;;;;12.02;2.45;;;11.30;90.80;;;;;;5138801;27;20055;-83
2022/03/19 09:57:31;;;;;;;11.63;2.53;;;11.50;91.10;;;;;;5138962;27;20050;-84
2022/03/19 09:59:57;;;;;;;11.50;2.92;;;11.70;90.70;;;;;;5139178;27;20055;-85
2022/03/19 10:02:23;;;;;;;11.32;2.20;;;11.80;90.80;;;;;;5139069;27;20086;-86
2022/03/19 10:04:52;;;;;;;14.38;2.95;;;12.00;91.00;;;;;;5138713;27;20524;-85
2022/03/19 10:10:08;;;;;;;15.65;3.08;;;12.20;90.20;;;;;;5139128;27;20058;-85
2022/03/19 10:12:33;;;;;;;11.65;2.42;;;11.90;90.50;;;;;;5138851;27;20057;-86
2022/03/19 10:15:00;;;;;;;9.52;2.30;;;12.00;90.40;;;;;;5138870;27;20051;-88
2022/03/19 10:17:34;;;;;;;12.30;2.40;;;12.00;90.20;;;;;;5110319;27;20047;-88
2022/03/19 10:20:10;;;;;;;10.60;2.00;;;12.10;90.50;;;;;;5122994;27;20049;-89
2022/03/19 10:22:42;;;;;;;12.27;2.25;;;12.30;89.30;;;;;;5123156;27;20035;-86
2022/03/19 10:25:10;;;;;;;9.70;2.15;;;12.50;90.20;;;;;;5137260;27;20047;-88
2022/03/19 10:27:40;;;;;;;8.93;2.13;;;12.70;90.10;;;;;;5135077;27;20047;-83
2022/03/19 10:30:06;;;;;;;10.27;2.60;;;13.00;89.50;;;;;;5117648;27;20619;-85
2022/03/19 10:32:32;;;;;;;13.38;1.65;;;13.20;89.60;;;;;;5117935;27;20486;-84
2022/03/19 10:34:57;;;;;;;8.20;1.95;;;13.10;87.10;;;;;;5117725;27;20051;-81
2022/03/19 10:37:39;;;;;;;9.50;1.92;;;13.10;87.30;;;;;;5117514;27;20051;-82
2022/03/19 10:40:07;;;;;;;10.05;2.13;;;13.20;88.00;;;;;;5117934;27;20081;-82
2022/03/19 10:42:40;;;;;;;10.05;2.03;;;13.50;87.30;;;;;;5117679;27;20134;-82
2022/03/19 10:45:11;;;;;;;7.80;1.95;;;13.40;86.30;;;;;;5118546;27;20066;-82
2022/03/19 10:47:46;;;;;;;7.80;2.00;;;13.50;86.90;;;;;;5117588;27;20119;-83
2022/03/19 10:50:18;;;;;;;8.27;2.08;;;13.80;87.20;;;;;;5100577;27;20146;-82
2022/03/19 10:52:46;;;;;;;10.32;2.38;;;14.10;87.50;;;;;;5100581;27;20092;-83
2022/03/19 10:55:12;;;;;;;17.73;2.80;;;14.10;88.30;;;;;;5116510;27;20082;-83
2022/03/19 10:57:37;;;;;;;11.43;3.03;;;14.30;88.20;;;;;;5117126;27;20081;-82
2022/03/19 11:00:05;;;;;;;11.48;2.28;;;14.60;88.20;;;;;;5117304;27;20051;-82
2022/03/19 11:02:31;;;;;;;13.13;2.70;;;14.70;87.80;;;;;;5100322;27;20050;-83
2022/03/19 11:05:01;;;;;;;10.98;2.22;;;14.90;86.90;;;;;;5116643;27;20073;-83
2022/03/19 11:07:31;;;;;;;13.45;1.88;;;14.80;86.20;;;;;;5100209;27;20405;-83
2022/03/19 11:09:58;;;;;;;11.07;2.30;;;14.70;85.50;;;;;;5117935;27;20039;-83
2022/03/19 11:12:28;;;;;;;8.40;1.88;;;15.00;86.90;;;;;;5117132;27;20051;-83
2022/03/19 11:14:58;;;;;;;7.65;1.80;;;15.00;84.20;;;;;;5117254;27;20210;-83
2022/03/19 11:17:30;;;;;;;9.68;2.00;;;15.10;84.10;;;;;;5116850;27;20051;-83
2022/03/19 11:20:11;;;;;;;6.57;1.98;;;15.10;83.80;;;;;;5117136;27;20058;-83
2022/03/19 11:22:47;;;;;;;8.48;1.95;;;15.10;83.50;;;;;;5117027;27;20046;-83
2022/03/19 11:25:25;;;;;;;14.63;3.08;;;15.40;84.80;;;;;;5116757;27;20448;-83
2022/03/19 11:27:59;;;;;;;11.88;2.00;;;15.70;84.50;;;;;;5117051;27;20051;-83
2022/03/19 11:30:27;;;;;;;10.05;2.22;;;15.80;83.80;;;;;;5116870;27;20085;-83
2022/03/19 11:33:19;;;;;;;8.43;1.88;;;15.80;83.40;;;;;;5099530;27;20043;-83
2022/03/19 11:35:55;;;;;;;6.95;1.70;;;15.70;83.30;;;;;;5112571;27;20481;-83
2022/03/19 11:38:23;;;;;;;9.10;2.83;;;15.50;82.80;;;;;;5116500;27;20039;-83
2022/03/19 11:40:56;;;;;;;10.48;2.83;;;15.40;82.60;;;;;;5116809;27;20051;-82
2022/03/19 11:43:24;;;;;;;3.55;1.42;;;15.80;82.70;;;;;;5116329;27;20089;-80
2022/03/19 11:45:50;;;;;;;6.18;1.10;;;15.60;81.50;;;;;;5120854;27;20047;-85
2022/03/19 11:48:38;;;;;;;7.45;1.40;;;15.50;82.00;;;;;;5102506;28;20473;-89
2022/03/19 11:51:25;;;;;;;9.48;1.52;;;15.60;82.00;;;;;;5116267;27;20051;-78
2022/03/19 11:54:04;;;;;;;5.53;1.20;;;15.80;81.60;;;;;;5116637;28;20039;-79
2022/03/19 11:56:42;;;;;;;6.25;1.40;;;16.10;81.00;;;;;;5116245;28;20053;-78
2022/03/19 11:59:17;;;;;;;5.47;1.33;;;15.90;79.70;;;;;;5116525;28;20103;-80
2022/03/19 12:01:54;;;;;;;5.30;1.67;;;16.00;80.30;;;;;;5116157;28;20096;-79
2022/03/19 12:04:21;;;;;;;4.32;1.27;;;16.00;80.40;;;;;;5116156;28;20172;-83
2022/03/19 12:06:58;;;;;;;6.40;1.38;;;15.90;81.00;;;;;;5119716;27;20051;-79
2022/03/19 12:09:53;;;;;;;6.00;1.50;;;16.20;79.80;;;;;;5120984;27;20137;-78
2022/03/19 12:12:24;;;;;;;6.82;1.23;;;16.40;80.00;;;;;;5098672;27;20587;-79
2022/03/19 12:14:51;;;;;;;5.30;1.20;;;16.70;79.30;;;;;;5120682;27;20047;-78
2022/03/19 12:17:23;;;;;;;2.83;1.20;;;16.40;78.80;;;;;;5120079;27;20076;-78
2022/03/19 12:19:59;;;;;;;9.52;1.50;;;16.60;79.40;;;;;;5120537;27;20542;-79
2022/03/19 12:22:28;;;;;;;4.78;1.17;;;16.50;77.90;;;;;;5120485;27;20062;-78
2022/03/19 12:25:18;;;;;;;6.10;1.30;;;16.40;79.00;;;;;;5125479;27;20051;-79
2022/03/19 12:27:51;;;;;;;5.55;1.20;;;16.40;78.50;;;;;;5120548;27;20047;-80
2022/03/19 12:30:18;;;;;;;5.93;1.25;;;16.70;79.30;;;;;;5120950;27;20135;-80
2022/03/19 12:32:54;;;;;;;5.82;1.38;;;17.10;78.20;;;;;;5103226;27;20051;-80
2022/03/19 12:35:24;;;;;;;4.40;1.10;;;17.60;78.50;;;;;;5120227;27;20367;-80
2022/03/19 12:37:55;;;;;;;6.18;1.30;;;17.90;78.00;;;;;;5102882;27;20035;-80
2022/03/19 12:40:27;;;;;;;6.65;1.70;;;18.00;77.50;;;;;;5119646;27;20044;-80
2022/03/19 12:42:55;;;;;;;4.82;1.38;;;18.00;76.60;;;;;;5119772;27;20050;-80
2022/03/19 12:45:38;;;;;;;4.55;1.30;;;18.00;76.80;;;;;;5120080;27;20129;-80
2022/03/19 12:48:10;;;;;;;6.47;1.58;;;18.10;75.60;;;;;;5119913;27;20183;-78
2022/03/19 12:50:36;;;;;;;5.93;1.50;;;17.70;75.10;;;;;;5102923;27;20043;-82
2022/03/19 12:53:02;;;;;;;6.72;1.60;;;16.90;75.80;;;;;;5102711;27;20057;-82
2022/03/19 12:55:28;;;;;;;6.03;1.40;;;17.20;75.20;;;;;;5085627;27;20039;-82
2022/03/19 12:57:58;;;;;;;4.32;1.30;;;17.50;75.70;;;;;;5119578;27;20043;-82
2022/03/19 13:00:24;;;;;;;5.85;1.70;;;18.10;77.30;;;;;;5102793;27;20043;-81
2022/03/19 13:02:52;;;;;;;5.63;1.63;;;18.30;75.60;;;;;;5119677;27;20082;-82
2022/03/19 13:05:18;;;;;;;4.25;1.73;;;18.50;74.50;;;;;;5102404;27;20067;-83
2022/03/19 13:08:03;;;;;;;7.00;1.33;;;18.80;74.50;;;;;;5119832;27;20147;-84